Terminal Aerodrome Forecast
Issued by NWS North Platte, NE

Home | Current Version | Previous Version | Text Only | Print | Product List | Glossary Off
Versions: 1 2 3 4 5 6 7 8 9 10 11 12

000
FTUS43 KLBF 271700
TAFVTN
TAF
KVTN 271721Z 2718/2818 33014G22KT P6SM SCT250
     FM280100 01008KT P6SM SCT120
     FM281500 05008KT P6SM SCT120=

USA.gov is the U.S. government's official web portal to all federal, state and local government web resources and services.